createdAt,value
2022-11-16T00:01:49.898Z,2.39
2022-11-16T00:03:48.446Z,2.38
2022-11-16T00:05:46.775Z,2.39
2022-11-16T00:07:47.873Z,2.43
2022-11-16T00:09:45.897Z,2.44
2022-11-16T00:11:45.677Z,2.39
2022-11-16T00:13:45.045Z,2.34
2022-11-16T00:15:43.115Z,2.39
2022-11-16T00:17:43.473Z,2.32
2022-11-16T00:19:41.719Z,2.27
2022-11-16T00:21:40.188Z,2.15
2022-11-16T00:23:39.554Z,2.13
2022-11-16T00:25:37.905Z,2.12
2022-11-16T00:27:37.374Z,2.04
2022-11-16T00:29:35.542Z,1.93
2022-11-16T00:31:34.068Z,1.82
2022-11-16T00:33:32.506Z,1.73
2022-11-16T00:35:30.763Z,1.66
2022-11-16T00:37:28.962Z,1.60
2022-11-16T00:39:27.177Z,1.50
2022-11-16T00:41:25.653Z,1.48
2022-11-16T00:43:25.682Z,1.46
2022-11-16T00:45:23.880Z,1.43
2022-11-16T00:47:22.668Z,1.36
2022-11-16T00:49:23.226Z,1.34
2022-11-16T00:51:21.604Z,1.28
2022-11-16T00:53:21.644Z,1.29
2022-11-16T00:55:20.064Z,1.33
2022-11-16T00:57:18.406Z,1.31
2022-11-16T00:59:18.590Z,1.28
2022-11-16T01:01:17.121Z,1.26
2022-11-16T01:03:15.452Z,1.21
2022-11-16T01:05:14.219Z,1.22
2022-11-16T01:07:12.552Z,1.21
2022-11-16T01:09:12.198Z,1.27
2022-11-16T01:11:29.229Z,1.22
2022-11-16T01:13:29.958Z,1.20
2022-11-16T01:15:30.441Z,1.19
2022-11-16T01:17:28.558Z,1.17
2022-11-16T01:19:26.778Z,1.19
2022-11-16T01:21:25.882Z,1.14
2022-11-16T01:23:24.039Z,1.11
2022-11-16T01:25:22.933Z,1.03
2022-11-16T01:27:21.232Z,0.97
2022-11-16T01:29:19.705Z,0.94
2022-11-16T01:31:26.714Z,1.01
2022-11-16T01:33:25.901Z,0.95
2022-11-16T01:35:24.211Z,0.93
2022-11-16T01:37:22.344Z,0.96
2022-11-16T01:39:21.208Z,0.92
2022-11-16T01:41:26.556Z,0.92
2022-11-16T01:43:28.399Z,0.98
2022-11-16T01:45:38.824Z,0.93
2022-11-16T01:47:40.603Z,0.90
2022-11-16T01:49:42.126Z,0.90
2022-11-16T01:51:46.705Z,0.89
2022-11-16T01:53:46.453Z,0.85
2022-11-16T01:55:47.919Z,0.81
2022-11-16T01:58:19.414Z,0.79
2022-11-16T02:00:21.139Z,0.85
2022-11-16T02:02:29.430Z,0.87
2022-11-16T02:04:29.155Z,0.89
2022-11-16T02:06:39.173Z,0.88
2022-11-16T02:09:11.662Z,0.87
2022-11-16T02:11:36.630Z,0.92
2022-11-16T02:13:44.721Z,0.92
2022-11-16T02:15:49.039Z,0.88
2022-11-16T02:18:14.801Z,0.84
2022-11-16T02:20:35.999Z,0.81
2022-11-16T02:22:48.360Z,0.81
2022-11-16T02:24:55.043Z,0.82
2022-11-16T02:27:17.542Z,0.79
2022-11-16T02:29:25.792Z,0.84
2022-11-16T02:31:28.622Z,0.83
2022-11-16T02:33:36.530Z,0.76
2022-11-16T02:35:41.593Z,0.76
2022-11-16T02:37:49.783Z,0.75
2022-11-16T02:39:53.522Z,0.75
2022-11-16T02:41:54.914Z,0.79
2022-11-16T02:44:01.272Z,0.83
2022-11-16T02:46:06.491Z,0.82
2022-11-16T02:48:09.740Z,0.77
2022-11-16T02:50:12.156Z,0.79
2022-11-16T02:52:13.012Z,0.83
2022-11-16T02:54:13.130Z,0.88
2022-11-16T02:56:15.694Z,0.92
2022-11-16T02:58:19.109Z,0.93
2022-11-16T03:00:21.394Z,0.86
2022-11-16T03:02:26.939Z,0.89
2022-11-16T03:04:30.848Z,0.94
2022-11-16T03:06:32.612Z,0.95
2022-11-16T03:08:33.123Z,0.95
2022-11-16T03:10:56.099Z,0.92
2022-11-16T03:12:54.936Z,0.93
2022-11-16T03:14:56.581Z,0.98
2022-11-16T03:16:58.536Z,1.03
2022-11-16T03:19:00.786Z,1.02
2022-11-16T03:21:08.276Z,1.08
2022-11-16T03:23:11.391Z,1.03
2022-11-16T03:25:15.164Z,1.09
2022-11-16T03:27:28.152Z,1.06
2022-11-16T03:29:32.718Z,1.00
2022-11-16T03:31:46.355Z,1.06
2022-11-16T03:33:51.454Z,1.04
2022-11-16T03:35:56.644Z,1.26
2022-11-16T03:37:59.279Z,1.40
2022-11-16T03:40:01.172Z,1.47
2022-11-16T03:42:05.401Z,1.51
2022-11-16T03:44:06.011Z,1.48
2022-11-16T03:46:04.942Z,1.44
2022-11-16T03:48:04.292Z,1.40
2022-11-16T03:50:02.518Z,1.36
2022-11-16T03:52:02.432Z,1.39
2022-11-16T03:54:01.859Z,1.40
2022-11-16T03:56:00.048Z,1.39
2022-11-16T03:57:59.420Z,1.39
2022-11-16T03:59:57.712Z,1.37
2022-11-16T04:01:56.143Z,1.37
2022-11-16T04:03:54.357Z,1.40
2022-11-16T04:06:10.108Z,1.37
2022-11-16T04:08:33.033Z,1.44
2022-11-16T04:10:49.211Z,1.47
2022-11-16T04:13:04.830Z,1.41
2022-11-16T04:15:22.073Z,1.39
2022-11-16T04:17:41.880Z,1.43
2022-11-16T04:19:59.398Z,1.41
2022-11-16T04:22:20.974Z,1.41
2022-11-16T04:24:23.844Z,1.70
2022-11-16T04:26:43.005Z,1.84
2022-11-16T04:28:41.347Z,2.06
2022-11-16T04:30:53.891Z,2.01
2022-11-16T04:33:09.888Z,2.02
2022-11-16T04:35:27.007Z,1.96
2022-11-16T04:37:42.723Z,1.91
2022-11-16T04:39:42.867Z,1.84
2022-11-16T04:41:58.652Z,1.80
2022-11-16T04:43:59.972Z,1.80
2022-11-16T04:46:16.253Z,1.78
2022-11-16T04:48:16.140Z,1.82
2022-11-16T04:50:14.529Z,1.83
2022-11-16T04:52:13.661Z,1.83
2022-11-16T04:54:12.839Z,1.84
2022-11-16T04:56:16.413Z,1.86
2022-11-16T04:58:14.912Z,2.01
2022-11-16T05:00:15.341Z,2.04
2022-11-16T05:02:15.198Z,1.96
2022-11-16T05:04:19.077Z,1.90
2022-11-16T05:06:17.317Z,2.07
2022-11-16T05:08:15.990Z,2.37
2022-11-16T05:10:16.575Z,2.39
2022-11-16T05:12:19.185Z,2.26
2022-11-16T05:14:19.365Z,2.30
2022-11-16T05:16:17.740Z,2.23
2022-11-16T05:18:15.959Z,2.17
2022-11-16T05:20:32.051Z,2.16
2022-11-16T05:22:35.311Z,2.18
2022-11-16T05:24:36.190Z,2.20
2022-11-16T05:26:35.972Z,2.21
2022-11-16T05:28:35.756Z,2.24
2022-11-16T05:30:34.365Z,2.31
2022-11-16T05:32:34.614Z,2.28
2022-11-16T05:34:32.964Z,2.22
2022-11-16T05:36:31.541Z,2.30
2022-11-16T05:38:29.976Z,2.22
2022-11-16T05:40:32.957Z,2.25
2022-11-16T05:42:32.300Z,2.25
2022-11-16T05:44:32.164Z,2.24
2022-11-16T05:46:30.453Z,2.29
2022-11-16T05:48:31.181Z,2.58
2022-11-16T05:50:29.730Z,2.58
2022-11-16T05:52:37.179Z,2.46
2022-11-16T05:54:39.236Z,2.39
2022-11-16T05:56:37.756Z,2.34
2022-11-16T05:58:36.553Z,2.51
2022-11-16T06:00:36.515Z,2.60
2022-11-16T06:02:35.095Z,2.69
2022-11-16T06:04:34.641Z,2.78
2022-11-16T06:06:33.140Z,2.77
2022-11-16T06:08:32.557Z,2.75
2022-11-16T06:10:34.268Z,2.67
2022-11-16T06:12:32.493Z,2.70
2022-11-16T06:14:30.773Z,2.86
2022-11-16T06:16:31.284Z,2.92
2022-11-16T06:18:30.213Z,2.96
2022-11-16T06:20:29.208Z,3.00
2022-11-16T06:22:27.872Z,3.04
2022-11-16T06:24:26.052Z,3.05
2022-11-16T06:26:24.446Z,3.06
2022-11-16T06:28:22.975Z,3.08
2022-11-16T06:30:21.568Z,3.05
2022-11-16T06:32:21.065Z,2.89
2022-11-16T06:34:19.508Z,2.92
2022-11-16T06:36:18.005Z,2.93
2022-11-16T06:38:18.724Z,2.90
2022-11-16T06:40:19.000Z,2.95
2022-11-16T06:42:17.289Z,3.02
2022-11-16T06:44:15.517Z,3.08
2022-11-16T06:46:24.707Z,3.11
2022-11-16T06:48:25.584Z,3.16
2022-11-16T06:50:23.788Z,3.26
2022-11-16T06:52:22.143Z,3.41
2022-11-16T06:54:21.537Z,3.49
2022-11-16T06:56:21.285Z,3.55
2022-11-16T06:58:29.713Z,3.61
2022-11-16T07:00:28.685Z,3.71
2022-11-16T07:02:27.868Z,3.78
2022-11-16T07:04:27.485Z,3.79
2022-11-16T07:06:29.324Z,3.91
2022-11-16T07:08:29.424Z,4.05
2022-11-16T07:10:27.810Z,4.06
2022-11-16T07:12:26.814Z,4.10
2022-11-16T07:14:27.481Z,3.92
2022-11-16T07:16:25.920Z,3.96
2022-11-16T07:18:28.712Z,3.98
2022-11-16T07:20:28.624Z,3.91
2022-11-16T07:22:27.210Z,3.94
2022-11-16T07:24:25.555Z,4.00
2022-11-16T07:26:24.110Z,4.02
2022-11-16T07:28:29.263Z,4.05
2022-11-16T07:30:28.060Z,4.16
2022-11-16T07:33:19.442Z,4.40
2022-11-16T07:36:18.121Z,4.66
2022-11-16T07:38:18.371Z,4.76
2022-11-16T07:40:17.801Z,4.82
2022-11-16T07:42:42.189Z,4.92
2022-11-16T07:46:21.343Z,4.84
2022-11-16T07:48:17.525Z,4.65
2022-11-16T07:50:38.764Z,4.49
2022-11-16T07:53:28.495Z,4.51
2022-11-16T07:55:32.127Z,4.54
2022-11-16T07:57:32.317Z,4.76
2022-11-16T08:00:21.696Z,4.66
2022-11-16T08:02:53.113Z,4.81
2022-11-16T08:05:34.600Z,5.01
2022-11-16T08:08:04.448Z,5.12
2022-11-16T08:10:12.823Z,5.11
2022-11-16T08:12:19.314Z,5.18
2022-11-16T08:15:02.642Z,5.18
2022-11-16T08:17:50.783Z,5.23
2022-11-16T08:20:26.735Z,5.34
2022-11-16T08:22:29.207Z,5.41
2022-11-16T08:25:13.728Z,5.69
2022-11-16T08:28:07.603Z,5.89
2022-11-16T08:30:10.294Z,5.99
2022-11-16T08:32:10.994Z,6.11
2022-11-16T08:34:51.745Z,6.24
2022-11-16T08:40:51.728Z,6.44
2022-11-16T08:43:40.824Z,6.85
2022-11-16T08:46:46.640Z,6.99
2022-11-16T08:49:13.263Z,7.57
2022-11-16T08:51:52.197Z,7.65
2022-11-16T08:54:26.720Z,7.56
2022-11-16T08:56:30.299Z,7.54
2022-11-16T08:58:43.494Z,7.54
2022-11-16T09:01:00.502Z,7.45
2022-11-16T09:04:04.611Z,7.66
2022-11-16T09:12:29.365Z,8.62
2022-11-16T09:14:36.949Z,9.56
2022-11-16T09:17:58.032Z,9.57
2022-11-16T09:21:00.857Z,9.55
2022-11-16T09:23:23.846Z,9.76
2022-11-16T09:26:01.179Z,10.75
2022-11-16T09:28:53.599Z,10.67
2022-11-16T09:31:42.986Z,11.15
2022-11-16T09:33:50.585Z,11.10
2022-11-16T09:35:49.978Z,11.42
2022-11-16T09:38:46.843Z,11.80
2022-11-16T09:41:42.344Z,13.42
2022-11-16T09:44:40.943Z,13.31
2022-11-16T09:47:34.285Z,13.79
2022-11-16T09:49:44.022Z,14.69
2022-11-16T09:51:46.491Z,14.83
2022-11-16T09:54:59.820Z,14.64
2022-11-16T09:57:50.624Z,15.41
2022-11-16T10:00:02.394Z,16.27
2022-11-16T10:02:22.989Z,16.39
2022-11-16T10:04:58.656Z,14.72
2022-11-16T10:07:28.047Z,12.33
2022-11-16T10:09:28.689Z,10.88
2022-11-16T10:11:41.645Z,10.25
2022-11-16T10:13:49.473Z,10.04
2022-11-16T10:16:17.960Z,10.12
2022-11-16T10:19:11.680Z,10.83
2022-11-16T10:21:36.147Z,12.40
2022-11-16T10:23:50.191Z,12.74
2022-11-16T10:26:30.720Z,13.38
2022-11-16T10:28:58.103Z,14.26
2022-11-16T10:31:48.364Z,15.27
2022-11-16T10:34:30.234Z,15.90
2022-11-16T10:36:35.919Z,16.21
2022-11-16T10:39:17.260Z,16.72
2022-11-16T10:42:13.627Z,16.44
2022-11-16T10:44:21.217Z,16.61
2022-11-16T10:47:19.352Z,16.62
2022-11-16T10:49:54.840Z,16.07
2022-11-16T10:51:56.282Z,14.34
2022-11-16T10:53:55.878Z,13.24
2022-11-16T10:56:11.879Z,12.60
2022-11-16T10:58:43.301Z,11.48
2022-11-16T11:01:40.779Z,10.95
2022-11-16T11:03:39.058Z,10.35
2022-11-16T11:06:18.239Z,10.18
2022-11-16T11:08:57.964Z,10.36
2022-11-16T11:11:22.757Z,10.44
2022-11-16T11:13:51.308Z,10.42
2022-11-16T11:16:32.850Z,10.76
2022-11-16T11:18:32.515Z,11.14
2022-11-16T11:20:44.814Z,11.28
2022-11-16T11:22:46.089Z,11.67
2022-11-16T11:24:48.797Z,11.52
2022-11-16T11:26:54.191Z,11.35
2022-11-16T11:28:52.590Z,11.26
2022-11-16T11:30:57.444Z,11.16
2022-11-16T11:32:55.761Z,11.00
2022-11-16T11:34:57.060Z,11.14
2022-11-16T11:36:58.756Z,11.23
2022-11-16T11:39:03.374Z,11.42
2022-11-16T11:41:05.307Z,11.48
2022-11-16T11:43:06.403Z,11.25
2022-11-16T11:45:10.269Z,11.13
2022-11-16T11:48:00.385Z,10.85
2022-11-16T11:50:07.802Z,10.54
2022-11-16T11:52:13.080Z,10.54
2022-11-16T11:54:19.281Z,10.56
2022-11-16T11:56:18.729Z,10.40
2022-11-16T11:58:19.664Z,10.34
2022-11-16T12:00:19.222Z,10.36
2022-11-16T12:02:35.009Z,10.43
2022-11-16T12:05:01.395Z,10.54
2022-11-16T12:07:08.077Z,10.63
2022-11-16T12:09:26.851Z,10.71
2022-11-16T12:11:34.389Z,10.66
2022-11-16T12:13:51.219Z,10.67
2022-11-16T12:16:06.510Z,10.85
2022-11-16T12:18:18.382Z,10.77
2022-11-16T12:20:34.585Z,10.66
2022-11-16T12:22:54.054Z,10.49
2022-11-16T12:25:08.331Z,10.40
2022-11-16T12:27:20.167Z,10.37
2022-11-16T12:29:27.269Z,10.41
2022-11-16T12:31:52.158Z,10.45
2022-11-16T12:33:59.611Z,10.41
2022-11-16T12:36:05.752Z,10.30
2022-11-16T12:38:23.125Z,10.34
2022-11-16T12:40:36.968Z,10.42
2022-11-16T12:42:48.278Z,10.47
2022-11-16T12:45:17.021Z,10.51
2022-11-16T12:47:25.640Z,10.50
2022-11-16T12:49:49.066Z,10.75
2022-11-16T12:52:01.137Z,10.82
2022-11-16T12:54:30.115Z,10.95
2022-11-16T12:56:39.731Z,10.98
2022-11-16T12:59:01.100Z,10.96
2022-11-16T13:01:12.243Z,10.99
2022-11-16T13:03:19.723Z,10.89
2022-11-16T13:05:22.456Z,10.86
2022-11-16T13:07:26.790Z,10.90
2022-11-16T13:09:31.481Z,10.87
2022-11-16T13:11:33.091Z,10.87
2022-11-16T13:13:38.599Z,10.93
2022-11-16T13:15:40.913Z,10.93
2022-11-16T13:17:41.097Z,10.97
2022-11-16T13:19:43.289Z,10.94
2022-11-16T13:21:49.021Z,10.87
2022-11-16T13:23:56.840Z,10.83
2022-11-16T13:26:04.006Z,10.78
2022-11-16T13:28:13.304Z,10.63
2022-11-16T13:30:20.543Z,10.59
2022-11-16T13:32:25.289Z,10.57
2022-11-16T13:34:27.218Z,10.59
2022-11-16T13:36:45.503Z,10.64
2022-11-16T13:38:54.335Z,10.67
2022-11-16T13:40:52.666Z,10.68
2022-11-16T13:43:06.820Z,10.69
2022-11-16T13:45:10.033Z,10.72
2022-11-16T13:47:22.075Z,10.71
2022-11-16T13:49:23.936Z,10.75
2022-11-16T13:51:24.837Z,10.73
2022-11-16T13:54:25.056Z,10.70
2022-11-16T13:55:57.450Z,10.72
2022-11-16T13:57:57.970Z,10.59
2022-11-16T14:00:11.529Z,10.44
2022-11-16T14:02:31.603Z,10.37
2022-11-16T14:04:57.869Z,10.31
2022-11-16T14:07:01.029Z,10.37
2022-11-16T14:09:00.565Z,10.32
2022-11-16T14:11:02.888Z,10.38
2022-11-16T14:13:01.570Z,10.39
2022-11-16T14:15:14.640Z,10.38
2022-11-16T14:17:53.712Z,10.49
2022-11-16T14:19:57.706Z,10.58
2022-11-16T14:22:05.567Z,10.59
2022-11-16T14:24:22.411Z,10.49
2022-11-16T14:26:26.672Z,10.36
2022-11-16T14:28:43.861Z,10.24
2022-11-16T14:30:56.552Z,10.14
2022-11-16T14:32:57.498Z,10.07
2022-11-16T14:34:58.154Z,10.02
2022-11-16T14:36:57.232Z,9.94
2022-11-16T14:38:56.046Z,9.86
2022-11-16T14:40:59.876Z,9.80
2022-11-16T14:43:20.223Z,9.76
2022-11-16T14:45:25.073Z,9.70
2022-11-16T14:47:28.746Z,9.64
2022-11-16T14:49:37.273Z,9.56
2022-11-16T14:51:39.315Z,9.59
2022-11-16T14:53:41.027Z,9.54
2022-11-16T14:55:45.358Z,9.51
2022-11-16T14:57:43.388Z,9.44
2022-11-16T14:59:41.700Z,9.33
2022-11-16T15:01:40.999Z,9.28
2022-11-16T15:03:44.346Z,9.22
2022-11-16T15:05:42.774Z,9.12
2022-11-16T15:07:45.061Z,9.11
2022-11-16T15:09:48.460Z,9.18
2022-11-16T15:12:07.327Z,9.24
2022-11-16T15:14:05.782Z,9.31
2022-11-16T15:16:12.491Z,9.32
2022-11-16T15:18:14.993Z,9.29
2022-11-16T15:20:20.799Z,9.21
2022-11-16T15:22:22.544Z,9.16
2022-11-16T15:24:30.633Z,9.11
2022-11-16T15:26:30.029Z,9.10
2022-11-16T15:28:55.298Z,9.18
2022-11-16T15:30:54.644Z,9.32
2022-11-16T15:32:54.385Z,9.35
2022-11-16T15:34:55.397Z,9.28
2022-11-16T15:36:58.023Z,9.23
2022-11-16T15:38:58.709Z,9.26
2022-11-16T15:41:06.487Z,9.15
2022-11-16T15:43:13.368Z,9.04
2022-11-16T15:45:22.427Z,8.97
2022-11-16T15:47:21.637Z,8.91
2022-11-16T15:49:28.824Z,8.93
2022-11-16T15:51:32.330Z,9.09
2022-11-16T15:53:40.622Z,9.14
2022-11-16T15:55:43.385Z,9.23
2022-11-16T15:57:46.629Z,9.27
2022-11-16T15:59:50.580Z,9.29
2022-11-16T16:01:52.255Z,9.18
2022-11-16T16:03:58.770Z,9.07
2022-11-16T16:05:57.319Z,8.99
2022-11-16T16:07:58.181Z,8.85
2022-11-16T16:10:13.826Z,8.76
2022-11-16T16:12:20.007Z,8.72
2022-11-16T16:14:27.503Z,8.66
2022-11-16T16:16:39.606Z,8.63
2022-11-16T16:18:54.903Z,8.62
2022-11-16T16:20:55.372Z,8.62
2022-11-16T16:23:16.465Z,8.62
2022-11-16T16:25:33.318Z,8.65
2022-11-16T16:27:32.410Z,8.57
2022-11-16T16:29:49.821Z,8.48
2022-11-16T16:32:07.057Z,8.39
2022-11-16T16:34:12.705Z,8.38
2022-11-16T16:36:13.788Z,8.43
2022-11-16T16:39:08.497Z,8.42
2022-11-16T16:44:00.733Z,8.63
2022-11-16T16:46:02.302Z,8.56
2022-11-16T16:48:00.714Z,8.47
2022-11-16T16:49:58.905Z,8.41
2022-11-16T16:52:00.423Z,8.39
2022-11-16T16:54:14.617Z,8.39
2022-11-16T16:56:19.755Z,8.36
2022-11-16T16:58:18.581Z,8.30
2022-11-16T17:00:18.733Z,8.36
2022-11-16T17:02:17.457Z,8.53
2022-11-16T17:04:15.994Z,8.55
2022-11-16T17:08:53.464Z,8.42
2022-11-16T17:11:05.846Z,8.33
2022-11-16T17:13:21.165Z,8.18
2022-11-16T17:15:27.405Z,8.16
2022-11-16T17:18:06.714Z,8.14
2022-11-16T17:20:50.319Z,8.13
2022-11-16T17:22:57.592Z,8.09
2022-11-16T17:24:58.873Z,8.11
2022-11-16T17:26:59.540Z,8.16
2022-11-16T17:29:01.843Z,8.25
2022-11-16T17:31:11.677Z,8.24
2022-11-16T17:33:10.195Z,8.16
2022-11-16T17:35:15.391Z,8.13
2022-11-16T17:37:22.687Z,8.09
2022-11-16T17:39:26.223Z,8.06
2022-11-16T17:41:25.681Z,8.05
2022-11-16T17:43:36.851Z,8.03
2022-11-16T17:45:36.645Z,7.97
2022-11-16T17:47:34.890Z,7.93
2022-11-16T17:49:36.321Z,7.90
2022-11-16T17:51:43.684Z,7.89
2022-11-16T17:53:44.315Z,8.01
2022-11-16T17:55:46.276Z,8.08
2022-11-16T17:57:44.617Z,8.17
2022-11-16T17:59:43.008Z,8.01
2022-11-16T18:01:45.747Z,7.96
2022-11-16T18:03:46.244Z,7.88
2022-11-16T18:05:45.323Z,7.83
2022-11-16T18:07:43.777Z,7.81
2022-11-16T18:09:41.975Z,7.78
2022-11-16T18:11:40.314Z,7.76
2022-11-16T18:13:38.770Z,7.75
2022-11-16T18:15:42.469Z,7.73
2022-11-16T18:17:42.321Z,7.74
2022-11-16T18:19:43.046Z,7.79
2022-11-16T18:21:42.654Z,7.77
2022-11-16T18:23:41.070Z,7.89
2022-11-16T18:25:41.618Z,7.90
2022-11-16T18:27:42.299Z,7.97
2022-11-16T18:29:41.237Z,8.03
2022-11-16T18:31:40.205Z,8.08
2022-11-16T18:33:40.540Z,7.97
2022-11-16T18:35:39.135Z,7.91
2022-11-16T18:37:40.569Z,8.06
2022-11-16T18:39:38.799Z,8.11
2022-11-16T18:44:34.418Z,8.00
2022-11-16T18:46:44.752Z,8.07
2022-11-16T18:48:47.403Z,8.08
2022-11-16T18:50:45.779Z,8.09
2022-11-16T18:52:45.410Z,8.06
2022-11-16T18:54:43.549Z,7.94
2022-11-16T18:56:44.846Z,7.91
2022-11-16T18:58:52.425Z,8.00
2022-11-16T19:01:05.125Z,8.07
2022-11-16T19:03:08.466Z,8.04
2022-11-16T19:05:11.020Z,7.99
2022-11-16T19:07:09.371Z,7.95
2022-11-16T19:09:09.699Z,7.97
2022-11-16T19:11:09.720Z,7.98
2022-11-16T19:13:08.121Z,8.01
2022-11-16T19:15:08.563Z,7.94
2022-11-16T19:17:06.799Z,7.95
2022-11-16T19:19:05.654Z,8.01
2022-11-16T19:21:06.623Z,8.09
2022-11-16T19:23:05.033Z,8.06
2022-11-16T19:25:05.991Z,8.10
2022-11-16T19:27:05.294Z,8.18
2022-11-16T19:29:05.800Z,8.24
2022-11-16T19:31:09.173Z,8.18
2022-11-16T19:33:09.326Z,8.13
2022-11-16T19:35:10.985Z,8.11
2022-11-16T19:37:11.074Z,8.09
2022-11-16T19:39:10.478Z,8.04
2022-11-16T19:41:11.400Z,7.99
2022-11-16T19:43:09.695Z,7.99
2022-11-16T19:45:09.062Z,7.99
2022-11-16T19:47:07.564Z,7.94
2022-11-16T19:49:19.610Z,7.92
2022-11-16T19:51:20.158Z,8.08
2022-11-16T19:53:23.877Z,8.15
2022-11-16T19:55:28.638Z,8.07
2022-11-16T19:57:40.236Z,7.97
2022-11-16T19:59:38.620Z,7.91
2022-11-16T20:01:37.066Z,7.92
2022-11-16T20:03:38.533Z,7.88
2022-11-16T20:05:37.076Z,7.82
2022-11-16T20:07:38.804Z,7.89
2022-11-16T20:09:41.774Z,7.98
2022-11-16T20:11:41.731Z,8.01
2022-11-16T20:13:40.221Z,7.97
2022-11-16T20:15:38.449Z,7.93
2022-11-16T20:17:39.695Z,8.01
2022-11-16T20:19:42.103Z,7.89
2022-11-16T20:21:45.005Z,7.81
2022-11-16T20:23:45.254Z,7.74
2022-11-16T20:25:45.027Z,7.77
2022-11-16T20:27:43.171Z,7.79
2022-11-16T20:29:41.406Z,7.82
2022-11-16T20:31:45.498Z,7.89
2022-11-16T20:33:50.867Z,7.95
2022-11-16T20:35:49.596Z,7.99
2022-11-16T20:37:49.877Z,7.99
2022-11-16T20:39:54.490Z,7.87
2022-11-16T20:41:56.558Z,7.82
2022-11-16T20:44:00.227Z,7.85
2022-11-16T20:46:23.279Z,7.86
2022-11-16T20:48:29.625Z,7.82
2022-11-16T20:50:53.132Z,7.77
2022-11-16T20:53:01.997Z,7.81
2022-11-16T20:55:02.201Z,7.89
2022-11-16T20:57:02.435Z,7.87
2022-11-16T20:59:06.551Z,7.83
2022-11-16T21:01:13.028Z,7.85
2022-11-16T21:03:12.948Z,7.96
2022-11-16T21:05:11.076Z,7.95
2022-11-16T21:07:09.592Z,7.88
2022-11-16T21:09:12.860Z,7.81
2022-11-16T21:11:13.137Z,7.79
2022-11-16T21:13:32.880Z,7.86
2022-11-16T21:15:32.111Z,7.85
2022-11-16T21:17:39.210Z,7.82
2022-11-16T21:19:37.467Z,7.83
2022-11-16T21:21:36.135Z,7.97
2022-11-16T21:23:36.481Z,7.98
2022-11-16T21:25:35.155Z,8.05
2022-11-16T21:27:35.223Z,8.00
2022-11-16T21:29:34.742Z,8.00
2022-11-16T21:31:36.884Z,8.00
2022-11-16T21:33:35.633Z,7.95
2022-11-16T21:35:34.330Z,7.91
2022-11-16T21:37:32.727Z,7.92
2022-11-16T21:39:34.206Z,7.91
2022-11-16T21:41:32.745Z,7.92
2022-11-16T21:43:31.904Z,7.96
2022-11-16T21:45:31.642Z,7.92
2022-11-16T21:47:30.365Z,8.00
2022-11-16T21:49:28.610Z,8.04
2022-11-16T21:51:27.964Z,8.05
2022-11-16T21:53:26.219Z,8.02
2022-11-16T21:55:24.709Z,8.03
2022-11-16T21:57:23.327Z,7.95
2022-11-16T21:59:21.711Z,7.95
2022-11-16T22:01:22.622Z,7.96
2022-11-16T22:03:21.088Z,8.01
2022-11-16T22:05:42.639Z,8.00
2022-11-16T22:07:42.844Z,8.08
2022-11-16T22:09:41.354Z,8.16
2022-11-16T22:11:39.700Z,8.07
2022-11-16T22:13:38.649Z,8.04
2022-11-16T22:15:36.974Z,8.02
2022-11-16T22:17:37.955Z,8.01
2022-11-16T22:19:36.300Z,8.05
2022-11-16T22:21:36.373Z,8.06
2022-11-16T22:23:35.874Z,8.06
2022-11-16T22:25:34.564Z,8.06
2022-11-16T22:27:58.393Z,8.09
2022-11-16T22:29:54.465Z,8.17
2022-11-16T22:31:52.595Z,8.08
2022-11-16T22:33:54.734Z,8.01
2022-11-16T22:35:57.030Z,7.99
2022-11-16T22:37:56.058Z,7.98
2022-11-16T22:39:54.374Z,7.97
2022-11-16T22:41:52.622Z,7.97
2022-11-16T22:43:51.725Z,8.06
2022-11-16T22:45:50.127Z,8.15
2022-11-16T22:47:52.091Z,8.15
2022-11-16T22:49:54.949Z,8.11
2022-11-16T22:51:58.627Z,8.10
2022-11-16T22:53:58.679Z,8.05
2022-11-16T22:55:56.903Z,8.05
2022-11-16T22:57:55.016Z,8.38
2022-11-16T22:59:53.461Z,8.36
2022-11-16T23:01:51.720Z,8.25
2022-11-16T23:03:51.238Z,8.15
2022-11-16T23:05:50.875Z,8.06
2022-11-16T23:07:49.082Z,8.02
2022-11-16T23:09:47.111Z,7.99
2022-11-16T23:12:14.646Z,7.99
2022-11-16T23:14:34.798Z,8.08
2022-11-16T23:16:33.493Z,8.05
2022-11-16T23:18:31.611Z,8.09
2022-11-16T23:20:55.760Z,8.15
2022-11-16T23:23:15.052Z,8.15
2022-11-16T23:25:31.493Z,8.12
2022-11-16T23:27:36.348Z,8.05
2022-11-16T23:29:34.782Z,8.02
2022-11-16T23:31:33.100Z,7.97
2022-11-16T23:33:45.053Z,8.01
2022-11-16T23:35:43.368Z,8.05
2022-11-16T23:37:52.201Z,8.01
2022-11-16T23:39:51.995Z,7.96
2022-11-16T23:42:09.567Z,7.98
2022-11-16T23:44:07.808Z,7.95
2022-11-16T23:46:06.362Z,8.00
2022-11-16T23:48:05.365Z,7.98
2022-11-16T23:50:03.644Z,7.96
2022-11-16T23:52:02.177Z,7.90
2022-11-16T23:54:00.384Z,7.89
2022-11-16T23:56:06.100Z,7.85
2022-11-16T23:58:04.668Z,7.82
